createdAt,value
2023-05-20T00:03:46.089Z,57.88
2023-05-20T00:08:48.083Z,57.89
2023-05-20T00:13:50.003Z,58.41
2023-05-20T00:18:52.098Z,58.67
2023-05-20T00:23:54.080Z,60.46
2023-05-20T00:28:56.100Z,60.14
2023-05-20T00:33:58.139Z,60.73
2023-05-20T00:39:00.102Z,60.63
2023-05-20T00:44:02.046Z,60.63
2023-05-20T00:49:04.220Z,61.16
2023-05-20T00:54:06.298Z,62.55
2023-05-20T00:59:08.273Z,63.37
2023-05-20T01:04:10.237Z,62.74
2023-05-20T01:09:13.352Z,63.37
2023-05-20T01:14:15.286Z,63.19
2023-05-20T01:19:35.848Z,63.86
2023-05-20T01:24:37.916Z,63.82
2023-05-20T01:29:40.528Z,63.78
2023-05-20T01:34:42.583Z,64.02
2023-05-20T01:39:44.569Z,64.59
2023-05-20T01:44:46.451Z,64.25
2023-05-20T01:49:48.447Z,65.17
2023-05-20T01:54:50.404Z,65.00
2023-05-20T01:59:52.429Z,65.29
2023-05-20T02:04:54.526Z,65.97
2023-05-20T02:09:56.513Z,66.03
2023-05-20T02:14:58.538Z,66.27
2023-05-20T02:20:00.672Z,66.79
2023-05-20T02:25:02.994Z,67.25
2023-05-20T02:30:06.977Z,67.85
2023-05-20T02:35:09.390Z,67.01
2023-05-20T02:40:11.569Z,66.82
2023-05-20T02:45:13.669Z,67.05
2023-05-20T02:50:15.733Z,67.24
2023-05-20T02:55:17.778Z,67.75
2023-05-20T03:00:19.711Z,67.81
2023-05-20T03:05:21.723Z,67.56
2023-05-20T03:10:23.689Z,68.06
2023-05-20T03:15:25.684Z,67.96
2023-05-20T03:20:27.618Z,69.03
2023-05-20T03:25:31.170Z,69.00
2023-05-20T03:30:33.197Z,68.53
2023-05-20T03:35:35.413Z,68.62
2023-05-20T03:40:37.391Z,69.74
2023-05-20T03:45:39.338Z,68.29
2023-05-20T03:50:41.302Z,67.76
2023-05-20T03:55:43.269Z,67.41
2023-05-20T04:00:45.219Z,67.26
2023-05-20T04:05:47.194Z,67.81
2023-05-20T04:10:49.175Z,67.08
2023-05-20T04:15:52.353Z,67.75
2023-05-20T04:20:57.531Z,67.95
2023-05-20T04:25:59.530Z,67.20
2023-05-20T04:31:01.980Z,66.23
2023-05-20T04:36:04.933Z,66.41
2023-05-20T04:41:07.064Z,65.86
2023-05-20T04:46:09.036Z,64.92
2023-05-20T04:51:11.386Z,62.35
2023-05-20T04:56:13.326Z,61.49
2023-05-20T05:01:15.348Z,61.38
2023-05-20T05:06:17.574Z,62.18
2023-05-20T05:11:19.625Z,61.43
2023-05-20T05:16:21.716Z,60.86
2023-05-20T05:21:23.747Z,59.65
2023-05-20T05:26:26.239Z,60.35
2023-05-20T05:31:28.320Z,61.06
2023-05-20T05:36:33.680Z,58.85
2023-05-20T05:41:35.750Z,59.08
2023-05-20T05:46:37.859Z,58.48
2023-05-20T05:51:39.841Z,55.88
2023-05-20T05:56:41.931Z,53.78
2023-05-20T06:01:43.953Z,52.94
2023-05-20T06:06:46.025Z,51.06
2023-05-20T06:11:47.895Z,47.94
2023-05-20T06:16:49.771Z,45.48
2023-05-20T06:21:51.748Z,45.40
2023-05-20T06:26:53.757Z,43.04
2023-05-20T06:31:55.719Z,41.06
2023-05-20T06:36:57.732Z,38.64
2023-05-20T06:41:59.407Z,38.07
2023-05-20T06:47:01.348Z,34.91
2023-05-20T06:52:03.112Z,34.08
2023-05-20T06:57:05.326Z,33.36
2023-05-20T07:02:07.505Z,29.92
2023-05-20T07:07:09.538Z,25.93
2023-05-20T07:12:11.551Z,28.26
2023-05-20T07:17:13.469Z,29.13
2023-05-20T07:22:15.288Z,29.05
2023-05-20T07:27:17.211Z,27.48
2023-05-20T07:32:19.156Z,28.38
2023-05-20T07:37:21.082Z,25.13
2023-05-20T07:42:23.041Z,26.83
2023-05-20T07:47:25.141Z,28.13
2023-05-20T07:52:27.134Z,28.76
2023-05-20T07:57:29.033Z,33.46
2023-05-20T08:02:30.989Z,31.56
2023-05-20T08:07:33.051Z,32.34
2023-05-20T08:12:34.727Z,34.46
2023-05-20T08:17:36.526Z,34.42
2023-05-20T08:22:39.011Z,34.12
2023-05-20T08:27:40.910Z,35.17
2023-05-20T08:32:42.834Z,36.10
2023-05-20T08:37:44.620Z,36.05
2023-05-20T08:42:49.691Z,35.34
2023-05-20T08:47:51.610Z,37.27
2023-05-20T08:52:53.775Z,36.49
2023-05-20T08:57:55.918Z,37.22
2023-05-20T09:03:01.015Z,38.51
2023-05-20T09:08:12.509Z,38.76
2023-05-20T09:13:14.527Z,38.39
2023-05-20T09:18:16.407Z,38.87
2023-05-20T09:23:19.397Z,39.95
2023-05-20T09:28:23.193Z,39.29
2023-05-20T09:33:28.219Z,39.88
2023-05-20T09:38:31.233Z,40.37
2023-05-20T09:43:33.241Z,40.29
2023-05-20T09:48:38.173Z,40.52
2023-05-20T09:53:40.277Z,41.16
2023-05-20T09:58:42.988Z,42.15
2023-05-20T10:03:45.022Z,41.80
2023-05-20T10:09:14.813Z,40.62
2023-05-20T10:14:26.755Z,39.24
2023-05-20T10:19:35.099Z,38.93
2023-05-20T10:24:41.298Z,38.92
2023-05-20T10:34:53.938Z,39.78
2023-05-20T10:40:11.731Z,40.39
2023-05-20T10:45:25.324Z,40.24
2023-05-20T10:50:37.055Z,40.78
2023-05-20T10:55:39.720Z,40.57
2023-05-20T11:00:41.904Z,40.50
2023-05-20T11:05:44.848Z,41.37
2023-05-20T11:10:46.700Z,41.53
2023-05-20T11:15:49.398Z,42.99
2023-05-20T11:20:51.368Z,43.10
2023-05-20T11:25:53.525Z,42.86
2023-05-20T11:30:55.578Z,43.15
2023-05-20T11:35:57.395Z,42.63
2023-05-20T11:40:59.584Z,41.84
2023-05-20T11:46:01.400Z,41.99
2023-05-20T11:51:03.300Z,40.73
2023-05-20T11:56:05.333Z,40.83
2023-05-20T12:01:21.125Z,40.22
2023-05-20T12:06:24.001Z,40.06
2023-05-20T12:11:25.915Z,40.55
2023-05-20T12:16:27.938Z,40.88
2023-05-20T12:21:29.995Z,40.82
2023-05-20T12:26:31.880Z,41.21
2023-05-20T12:31:35.162Z,40.66
2023-05-20T12:36:37.195Z,40.61
2023-05-20T12:41:39.112Z,41.54
2023-05-20T12:46:41.171Z,41.54
2023-05-20T12:51:43.132Z,42.26
2023-05-20T12:56:45.169Z,42.43
2023-05-20T13:01:47.161Z,42.03
2023-05-20T13:06:49.130Z,41.84
2023-05-20T13:11:51.077Z,41.54
2023-05-20T13:16:52.932Z,41.53
2023-05-20T13:21:54.867Z,41.38
2023-05-20T13:26:56.784Z,41.14
2023-05-20T13:32:00.962Z,41.18
2023-05-20T13:37:03.805Z,40.97
2023-05-20T13:42:05.994Z,41.40
2023-05-20T13:47:07.871Z,41.62
2023-05-20T13:52:09.823Z,41.32
2023-05-20T13:57:11.947Z,41.87
2023-05-20T14:02:13.922Z,42.05
2023-05-20T14:07:16.061Z,42.21
2023-05-20T14:12:17.994Z,42.00
2023-05-20T14:17:19.954Z,41.56
2023-05-20T14:22:21.956Z,42.07
2023-05-20T14:27:23.944Z,42.23
2023-05-20T14:32:25.964Z,41.87
2023-05-20T14:37:27.984Z,41.81
2023-05-20T14:42:29.941Z,41.89
2023-05-20T14:47:31.865Z,42.09
2023-05-20T14:52:33.875Z,41.94
2023-05-20T14:57:35.826Z,42.57
2023-05-20T15:02:37.925Z,41.33
2023-05-20T15:07:39.790Z,41.43
2023-05-20T15:12:41.514Z,41.23
2023-05-20T15:17:43.552Z,41.56
2023-05-20T15:22:45.524Z,41.17
2023-05-20T15:27:47.387Z,41.42
2023-05-20T15:32:49.348Z,41.62
2023-05-20T15:37:51.307Z,41.84
2023-05-20T15:42:53.252Z,42.07
2023-05-20T15:47:55.373Z,42.06
2023-05-20T15:52:57.399Z,42.41
2023-05-20T15:57:59.479Z,42.00
2023-05-20T16:03:01.435Z,41.79
2023-05-20T16:08:03.341Z,41.66
2023-05-20T16:13:05.255Z,42.37
2023-05-20T16:18:07.235Z,42.58
2023-05-20T16:23:09.152Z,42.65
2023-05-20T16:28:11.258Z,43.28
2023-05-20T16:33:13.388Z,43.86
2023-05-20T16:38:15.361Z,44.50
2023-05-20T16:43:17.263Z,45.59
2023-05-20T16:48:19.244Z,47.20
2023-05-20T16:53:21.181Z,47.76
2023-05-20T16:58:23.171Z,49.43
2023-05-20T17:03:25.200Z,50.24
2023-05-20T17:08:27.236Z,51.89
2023-05-20T17:13:29.224Z,53.43
2023-05-20T17:18:31.206Z,55.10
2023-05-20T17:23:33.083Z,56.39
2023-05-20T17:28:34.998Z,57.68
2023-05-20T17:33:37.100Z,59.61
2023-05-20T17:38:39.215Z,61.83
2023-05-20T17:43:41.139Z,63.93
2023-05-20T17:48:42.978Z,65.77
2023-05-20T17:53:44.916Z,67.01
2023-05-20T17:58:47.001Z,67.89
2023-05-20T18:03:49.254Z,69.36
2023-05-20T18:08:51.081Z,71.24
2023-05-20T18:13:52.875Z,70.57
2023-05-20T18:18:55.329Z,71.34
2023-05-20T18:23:57.194Z,72.65
2023-05-20T18:28:59.048Z,73.18
2023-05-20T18:34:01.061Z,74.02
2023-05-20T18:39:03.050Z,75.80
2023-05-20T18:44:05.784Z,77.44
2023-05-20T18:49:08.100Z,78.11
2023-05-20T18:54:10.029Z,79.42
2023-05-20T18:59:11.859Z,79.86
2023-05-20T19:04:13.732Z,79.75
2023-05-20T19:09:15.637Z,79.52
2023-05-20T19:14:17.508Z,79.45
2023-05-20T19:19:19.543Z,78.94
2023-05-20T19:24:21.595Z,78.30
2023-05-20T19:29:23.631Z,78.10
2023-05-20T19:34:25.625Z,77.65
2023-05-20T19:39:27.702Z,77.54
2023-05-20T19:44:29.649Z,78.21
2023-05-20T19:49:31.652Z,79.65
2023-05-20T19:54:33.815Z,80.42
2023-05-20T19:59:35.810Z,80.99
2023-05-20T20:04:37.838Z,81.96
2023-05-20T20:09:39.744Z,83.03
2023-05-20T20:14:41.681Z,85.08
2023-05-20T20:19:44.431Z,85.12
2023-05-20T20:24:46.290Z,85.54
2023-05-20T20:29:48.244Z,85.09
2023-05-20T20:34:50.252Z,84.80
2023-05-20T20:39:52.224Z,84.31
2023-05-20T20:44:54.254Z,84.18
2023-05-20T20:49:56.491Z,84.03
2023-05-20T20:54:58.484Z,84.09
2023-05-20T21:00:00.771Z,84.42
2023-05-20T21:05:02.721Z,84.54
2023-05-20T21:10:07.084Z,84.94
2023-05-20T21:15:09.919Z,85.86
2023-05-20T21:20:12.236Z,86.81
2023-05-20T21:25:14.112Z,87.26
2023-05-20T21:30:16.080Z,89.32
2023-05-20T21:35:17.983Z,89.99
2023-05-20T21:40:20.003Z,91.33
2023-05-20T21:45:23.141Z,93.14
2023-05-20T21:50:25.033Z,93.61
2023-05-20T21:55:27.014Z,94.02
2023-05-20T22:00:28.998Z,94.49
2023-05-20T22:05:30.954Z,94.74
2023-05-20T22:10:32.819Z,95.97
2023-05-20T22:15:34.884Z,96.64
2023-05-20T22:20:36.815Z,96.94
2023-05-20T22:25:38.674Z,98.63
2023-05-20T22:30:40.572Z,99.51
2023-05-20T22:35:42.519Z,99.62
2023-05-20T22:40:44.426Z,99.45
2023-05-20T22:45:46.306Z,99.64
2023-05-20T22:50:48.480Z,99.40
2023-05-20T22:55:50.453Z,99.27
2023-05-20T23:00:52.350Z,99.11
2023-05-20T23:05:54.210Z,98.81
2023-05-20T23:10:56.068Z,99.45
2023-05-20T23:15:57.955Z,99.48
2023-05-20T23:20:59.885Z,99.00
2023-05-20T23:26:01.849Z,99.66
2023-05-20T23:31:03.869Z,99.34
2023-05-20T23:36:06.169Z,100.00
2023-05-20T23:41:08.103Z,100.00
2023-05-20T23:46:10.125Z,100.00
2023-05-20T23:51:12.071Z,100.00
2023-05-20T23:56:13.976Z,100.00
